sensor_id;sensor_type;location;lat;lon;timestamp;temperature;humidity
37528;DHT22;23372;52.050;4.810;2023-03-18T00:01:07;10.60;99.90
37528;DHT22;23372;52.050;4.810;2023-03-18T00:03:35;10.60;99.90
37528;DHT22;23372;52.050;4.810;2023-03-18T00:06:03;10.60;99.90
37528;DHT22;23372;52.050;4.810;2023-03-18T00:08:29;10.60;99.90
37528;DHT22;23372;52.050;4.810;2023-03-18T00:10:56;10.60;99.90
37528;DHT22;23372;52.050;4.810;2023-03-18T00:13:22;10.50;99.90
37528;DHT22;23372;52.050;4.810;2023-03-18T00:15:50;10.50;99.90
37528;DHT22;23372;52.050;4.810;2023-03-18T00:18:16;10.40;99.90
37528;DHT22;23372;52.050;4.810;2023-03-18T00:20:41;10.30;99.90
37528;DHT22;23372;52.050;4.810;2023-03-18T00:23:08;10.30;99.90
37528;DHT22;23372;52.050;4.810;2023-03-18T00:25:34;10.30;99.90
37528;DHT22;23372;52.050;4.810;2023-03-18T00:28:02;10.30;99.90
37528;DHT22;23372;52.050;4.810;2023-03-18T00:30:27;10.20;99.90
37528;DHT22;23372;52.050;4.810;2023-03-18T00:32:55;10.30;99.90
37528;DHT22;23372;52.050;4.810;2023-03-18T00:35:20;10.30;99.90
37528;DHT22;23372;52.050;4.810;2023-03-18T00:37:46;10.30;99.90
37528;DHT22;23372;52.050;4.810;2023-03-18T00:40:13;10.40;99.90
37528;DHT22;23372;52.050;4.810;2023-03-18T00:42:44;10.40;99.90
37528;DHT22;23372;52.050;4.810;2023-03-18T00:45:14;10.40;99.90
37528;DHT22;23372;52.050;4.810;2023-03-18T00:47:41;10.40;99.90
37528;DHT22;23372;52.050;4.810;2023-03-18T00:50:07;10.40;99.90
37528;DHT22;23372;52.050;4.810;2023-03-18T00:52:35;10.40;99.90
37528;DHT22;23372;52.050;4.810;2023-03-18T00:55:00;10.50;99.90
37528;DHT22;23372;52.050;4.810;2023-03-18T00:57:27;10.40;99.90
37528;DHT22;23372;52.050;4.810;2023-03-18T00:59:53;10.40;99.90
37528;DHT22;23372;52.050;4.810;2023-03-18T01:02:19;10.40;99.90
37528;DHT22;23372;52.050;4.810;2023-03-18T01:04:45;10.30;99.90
37528;DHT22;23372;52.050;4.810;2023-03-18T01:07:10;10.30;99.90
37528;DHT22;23372;52.050;4.810;2023-03-18T01:09:37;10.30;99.90
37528;DHT22;23372;52.050;4.810;2023-03-18T01:12:08;10.30;99.90
37528;DHT22;23372;52.050;4.810;2023-03-18T01:14:35;10.20;99.90
37528;DHT22;23372;52.050;4.810;2023-03-18T01:17:02;10.20;99.90
37528;DHT22;23372;52.050;4.810;2023-03-18T01:19:28;10.20;99.90
37528;DHT22;23372;52.050;4.810;2023-03-18T01:21:54;10.20;99.90
37528;DHT22;23372;52.050;4.810;2023-03-18T01:24:20;10.20;99.90
37528;DHT22;23372;52.050;4.810;2023-03-18T01:26:47;10.10;99.90
37528;DHT22;23372;52.050;4.810;2023-03-18T01:29:12;10.10;99.90
37528;DHT22;23372;52.050;4.810;2023-03-18T01:31:38;10.10;99.90
37528;DHT22;23372;52.050;4.810;2023-03-18T01:34:04;10.10;99.90
37528;DHT22;23372;52.050;4.810;2023-03-18T01:36:30;10.10;99.90
37528;DHT22;23372;52.050;4.810;2023-03-18T01:38:55;10.00;99.90
37528;DHT22;23372;52.050;4.810;2023-03-18T01:41:23;10.00;99.90
37528;DHT22;23372;52.050;4.810;2023-03-18T01:43:50;10.00;99.90
37528;DHT22;23372;52.050;4.810;2023-03-18T01:46:40;9.80;99.90
37528;DHT22;23372;52.050;4.810;2023-03-18T01:51:54;9.80;99.90
37528;DHT22;23372;52.050;4.810;2023-03-18T01:54:23;9.90;99.90
37528;DHT22;23372;52.050;4.810;2023-03-18T01:56:49;9.90;99.90
37528;DHT22;23372;52.050;4.810;2023-03-18T01:59:17;10.00;99.90
37528;DHT22;23372;52.050;4.810;2023-03-18T02:02:01;10.00;99.90
37528;DHT22;23372;52.050;4.810;2023-03-18T02:04:31;10.00;99.90
37528;DHT22;23372;52.050;4.810;2023-03-18T02:06:59;10.00;99.90
37528;DHT22;23372;52.050;4.810;2023-03-18T02:09:25;10.10;99.90
37528;DHT22;23372;52.050;4.810;2023-03-18T02:11:51;10.10;99.90
37528;DHT22;23372;52.050;4.810;2023-03-18T02:14:22;10.10;99.90
37528;DHT22;23372;52.050;4.810;2023-03-18T02:16:58;10.10;99.90
37528;DHT22;23372;52.050;4.810;2023-03-18T02:22:29;10.10;99.90
37528;DHT22;23372;52.050;4.810;2023-03-18T02:27:58;10.10;99.90
37528;DHT22;23372;52.050;4.810;2023-03-18T02:30:29;10.10;99.90
37528;DHT22;23372;52.050;4.810;2023-03-18T02:32:57;10.10;99.90
37528;DHT22;23372;52.050;4.810;2023-03-18T02:35:24;10.10;99.90
37528;DHT22;23372;52.050;4.810;2023-03-18T02:37:49;10.10;99.90
37528;DHT22;23372;52.050;4.810;2023-03-18T02:42:45;10.00;99.90
37528;DHT22;23372;52.050;4.810;2023-03-18T02:45:29;10.00;99.90
37528;DHT22;23372;52.050;4.810;2023-03-18T02:47:58;10.00;99.90
37528;DHT22;23372;52.050;4.810;2023-03-18T02:50:25;10.00;99.90
37528;DHT22;23372;52.050;4.810;2023-03-18T02:52:50;10.00;99.90
37528;DHT22;23372;52.050;4.810;2023-03-18T02:55:16;10.00;99.90
37528;DHT22;23372;52.050;4.810;2023-03-18T02:57:41;10.10;99.90
37528;DHT22;23372;52.050;4.810;2023-03-18T03:00:07;10.00;99.90
37528;DHT22;23372;52.050;4.810;2023-03-18T03:02:33;10.10;99.90
37528;DHT22;23372;52.050;4.810;2023-03-18T03:04:59;10.10;99.90
37528;DHT22;23372;52.050;4.810;2023-03-18T03:07:26;10.10;99.90
37528;DHT22;23372;52.050;4.810;2023-03-18T03:09:52;10.10;99.90
37528;DHT22;23372;52.050;4.810;2023-03-18T03:12:17;10.20;99.90
37528;DHT22;23372;52.050;4.810;2023-03-18T03:14:43;10.20;99.90
37528;DHT22;23372;52.050;4.810;2023-03-18T03:17:09;10.20;99.90
37528;DHT22;23372;52.050;4.810;2023-03-18T03:19:35;10.20;99.90
37528;DHT22;23372;52.050;4.810;2023-03-18T03:22:00;10.20;99.90
37528;DHT22;23372;52.050;4.810;2023-03-18T03:24:26;10.20;99.90
37528;DHT22;23372;52.050;4.810;2023-03-18T03:26:52;10.20;99.90
37528;DHT22;23372;52.050;4.810;2023-03-18T03:29:18;10.20;99.90
37528;DHT22;23372;52.050;4.810;2023-03-18T03:31:44;10.30;99.90
37528;DHT22;23372;52.050;4.810;2023-03-18T03:34:10;10.30;99.90
37528;DHT22;23372;52.050;4.810;2023-03-18T03:36:36;10.40;99.90
37528;DHT22;23372;52.050;4.810;2023-03-18T03:39:02;10.40;99.90
37528;DHT22;23372;52.050;4.810;2023-03-18T03:41:28;10.30;99.90
37528;DHT22;23372;52.050;4.810;2023-03-18T03:43:54;10.20;99.90
37528;DHT22;23372;52.050;4.810;2023-03-18T03:46:19;10.20;99.90
37528;DHT22;23372;52.050;4.810;2023-03-18T03:48:45;10.30;99.90
37528;DHT22;23372;52.050;4.810;2023-03-18T03:51:12;10.30;99.90
37528;DHT22;23372;52.050;4.810;2023-03-18T03:53:39;10.30;99.90
37528;DHT22;23372;52.050;4.810;2023-03-18T03:56:05;10.30;99.90
37528;DHT22;23372;52.050;4.810;2023-03-18T03:58:34;10.30;99.90
37528;DHT22;23372;52.050;4.810;2023-03-18T04:01:00;10.40;99.90
37528;DHT22;23372;52.050;4.810;2023-03-18T04:03:26;10.40;99.90
37528;DHT22;23372;52.050;4.810;2023-03-18T04:05:53;10.40;99.90
37528;DHT22;23372;52.050;4.810;2023-03-18T04:08:19;10.40;99.90
37528;DHT22;23372;52.050;4.810;2023-03-18T04:10:44;10.50;99.90
37528;DHT22;23372;52.050;4.810;2023-03-18T04:13:11;10.50;99.90
37528;DHT22;23372;52.050;4.810;2023-03-18T04:15:36;10.50;99.90
37528;DHT22;23372;52.050;4.810;2023-03-18T04:18:02;10.60;99.90
37528;DHT22;23372;52.050;4.810;2023-03-18T04:20:32;10.50;99.90
37528;DHT22;23372;52.050;4.810;2023-03-18T04:22:58;10.60;99.90
37528;DHT22;23372;52.050;4.810;2023-03-18T04:25:24;10.60;99.90
37528;DHT22;23372;52.050;4.810;2023-03-18T04:27:50;10.50;99.90
37528;DHT22;23372;52.050;4.810;2023-03-18T04:30:17;10.50;99.90
37528;DHT22;23372;52.050;4.810;2023-03-18T04:32:45;10.60;99.90
37528;DHT22;23372;52.050;4.810;2023-03-18T04:35:10;10.60;99.90
37528;DHT22;23372;52.050;4.810;2023-03-18T04:37:36;10.60;99.90
37528;DHT22;23372;52.050;4.810;2023-03-18T04:40:03;10.60;99.90
37528;DHT22;23372;52.050;4.810;2023-03-18T04:42:31;10.60;99.90
37528;DHT22;23372;52.050;4.810;2023-03-18T04:44:57;10.60;99.90
37528;DHT22;23372;52.050;4.810;2023-03-18T04:47:23;10.60;99.90
37528;DHT22;23372;52.050;4.810;2023-03-18T04:49:48;10.60;99.90
37528;DHT22;23372;52.050;4.810;2023-03-18T04:52:14;10.60;99.90
37528;DHT22;23372;52.050;4.810;2023-03-18T04:54:40;10.60;99.90
37528;DHT22;23372;52.050;4.810;2023-03-18T04:57:07;10.50;99.90
37528;DHT22;23372;52.050;4.810;2023-03-18T04:59:32;10.50;99.90
37528;DHT22;23372;52.050;4.810;2023-03-18T05:01:58;10.60;99.90
37528;DHT22;23372;52.050;4.810;2023-03-18T05:04:24;10.60;99.90
37528;DHT22;23372;52.050;4.810;2023-03-18T05:06:50;10.60;99.90
37528;DHT22;23372;52.050;4.810;2023-03-18T05:09:16;10.60;99.90
37528;DHT22;23372;52.050;4.810;2023-03-18T05:11:44;10.70;99.90
37528;DHT22;23372;52.050;4.810;2023-03-18T05:14:09;10.70;99.90
37528;DHT22;23372;52.050;4.810;2023-03-18T05:16:35;10.70;99.90
37528;DHT22;23372;52.050;4.810;2023-03-18T05:19:02;10.70;99.90
37528;DHT22;23372;52.050;4.810;2023-03-18T05:21:27;10.70;99.90
37528;DHT22;23372;52.050;4.810;2023-03-18T05:23:53;10.70;99.90
37528;DHT22;23372;52.050;4.810;2023-03-18T05:26:19;10.70;99.90
37528;DHT22;23372;52.050;4.810;2023-03-18T05:28:44;10.60;99.90
37528;DHT22;23372;52.050;4.810;2023-03-18T05:31:10;10.60;99.90
37528;DHT22;23372;52.050;4.810;2023-03-18T05:33:35;10.60;99.90
37528;DHT22;23372;52.050;4.810;2023-03-18T05:36:01;10.50;99.90
37528;DHT22;23372;52.050;4.810;2023-03-18T05:38:27;10.50;99.90
37528;DHT22;23372;52.050;4.810;2023-03-18T05:40:53;10.50;99.90
37528;DHT22;23372;52.050;4.810;2023-03-18T05:43:18;10.40;99.90
37528;DHT22;23372;52.050;4.810;2023-03-18T05:45:44;10.40;99.90
37528;DHT22;23372;52.050;4.810;2023-03-18T05:48:10;10.40;99.90
37528;DHT22;23372;52.050;4.810;2023-03-18T05:50:38;10.30;99.90
37528;DHT22;23372;52.050;4.810;2023-03-18T05:53:04;10.40;99.90
37528;DHT22;23372;52.050;4.810;2023-03-18T05:55:31;10.40;99.90
37528;DHT22;23372;52.050;4.810;2023-03-18T05:57:57;10.40;99.90
37528;DHT22;23372;52.050;4.810;2023-03-18T06:00:24;10.40;99.90
37528;DHT22;23372;52.050;4.810;2023-03-18T06:02:50;10.40;99.90
37528;DHT22;23372;52.050;4.810;2023-03-18T06:05:18;10.30;99.90
37528;DHT22;23372;52.050;4.810;2023-03-18T06:07:45;10.30;99.90
37528;DHT22;23372;52.050;4.810;2023-03-18T06:10:11;10.20;99.90
37528;DHT22;23372;52.050;4.810;2023-03-18T06:12:38;10.20;99.90
37528;DHT22;23372;52.050;4.810;2023-03-18T06:15:06;10.10;99.90
37528;DHT22;23372;52.050;4.810;2023-03-18T06:17:31;9.90;99.90
37528;DHT22;23372;52.050;4.810;2023-03-18T06:19:58;9.80;99.90
37528;DHT22;23372;52.050;4.810;2023-03-18T06:22:24;9.70;99.90
37528;DHT22;23372;52.050;4.810;2023-03-18T06:24:51;9.70;99.90
37528;DHT22;23372;52.050;4.810;2023-03-18T06:27:17;9.50;99.90
37528;DHT22;23372;52.050;4.810;2023-03-18T06:29:43;9.30;99.90
37528;DHT22;23372;52.050;4.810;2023-03-18T06:32:08;9.30;99.90
37528;DHT22;23372;52.050;4.810;2023-03-18T06:34:34;9.30;99.90
37528;DHT22;23372;52.050;4.810;2023-03-18T06:37:02;9.40;99.90
37528;DHT22;23372;52.050;4.810;2023-03-18T06:39:27;9.30;99.90
37528;DHT22;23372;52.050;4.810;2023-03-18T06:41:53;9.40;99.90
37528;DHT22;23372;52.050;4.810;2023-03-18T06:44:20;9.50;99.90
37528;DHT22;23372;52.050;4.810;2023-03-18T06:46:46;9.50;99.90
37528;DHT22;23372;52.050;4.810;2023-03-18T06:49:12;9.60;99.90
37528;DHT22;23372;52.050;4.810;2023-03-18T06:51:37;9.60;99.90
37528;DHT22;23372;52.050;4.810;2023-03-18T06:54:03;9.70;99.90
37528;DHT22;23372;52.050;4.810;2023-03-18T06:56:30;9.90;99.90
37528;DHT22;23372;52.050;4.810;2023-03-18T06:58:58;9.90;99.90
37528;DHT22;23372;52.050;4.810;2023-03-18T07:01:23;9.90;99.90
37528;DHT22;23372;52.050;4.810;2023-03-18T07:03:49;10.30;99.90
37528;DHT22;23372;52.050;4.810;2023-03-18T07:06:15;10.50;99.90
37528;DHT22;23372;52.050;4.810;2023-03-18T07:08:43;10.80;99.90
37528;DHT22;23372;52.050;4.810;2023-03-18T07:11:09;11.10;99.90
37528;DHT22;23372;52.050;4.810;2023-03-18T07:13:35;11.60;99.90
37528;DHT22;23372;52.050;4.810;2023-03-18T07:16:01;11.80;99.90
37528;DHT22;23372;52.050;4.810;2023-03-18T07:18:26;12.10;99.90
37528;DHT22;23372;52.050;4.810;2023-03-18T07:20:52;12.70;99.90
37528;DHT22;23372;52.050;4.810;2023-03-18T07:23:18;13.80;99.90
37528;DHT22;23372;52.050;4.810;2023-03-18T07:25:44;14.20;99.90
37528;DHT22;23372;52.050;4.810;2023-03-18T07:28:09;14.80;99.90
37528;DHT22;23372;52.050;4.810;2023-03-18T07:30:35;15.50;99.90
37528;DHT22;23372;52.050;4.810;2023-03-18T07:33:03;16.40;99.90
37528;DHT22;23372;52.050;4.810;2023-03-18T07:35:28;17.20;99.90
37528;DHT22;23372;52.050;4.810;2023-03-18T07:37:54;17.30;99.90
37528;DHT22;23372;52.050;4.810;2023-03-18T07:40:20;16.60;99.90
37528;DHT22;23372;52.050;4.810;2023-03-18T07:42:45;16.70;99.90
37528;DHT22;23372;52.050;4.810;2023-03-18T07:45:12;16.80;99.90
37528;DHT22;23372;52.050;4.810;2023-03-18T07:47:37;17.20;99.90
37528;DHT22;23372;52.050;4.810;2023-03-18T07:50:04;16.00;99.90
37528;DHT22;23372;52.050;4.810;2023-03-18T07:52:30;16.20;99.90
37528;DHT22;23372;52.050;4.810;2023-03-18T07:54:56;15.80;99.90
37528;DHT22;23372;52.050;4.810;2023-03-18T07:57:21;16.40;99.90
37528;DHT22;23372;52.050;4.810;2023-03-18T07:59:48;16.50;99.90
37528;DHT22;23372;52.050;4.810;2023-03-18T08:02:14;17.40;99.90
37528;DHT22;23372;52.050;4.810;2023-03-18T08:04:41;18.00;99.90
37528;DHT22;23372;52.050;4.810;2023-03-18T08:07:08;19.10;99.90
37528;DHT22;23372;52.050;4.810;2023-03-18T08:09:34;19.20;99.90
37528;DHT22;23372;52.050;4.810;2023-03-18T08:12:01;19.50;99.90
37528;DHT22;23372;52.050;4.810;2023-03-18T08:14:26;20.40;99.90
37528;DHT22;23372;52.050;4.810;2023-03-18T08:16:52;20.80;99.90
37528;DHT22;23372;52.050;4.810;2023-03-18T08:19:18;21.00;99.90
37528;DHT22;23372;52.050;4.810;2023-03-18T08:21:43;21.10;99.90
37528;DHT22;23372;52.050;4.810;2023-03-18T08:24:09;21.10;99.90
37528;DHT22;23372;52.050;4.810;2023-03-18T08:26:35;21.00;99.90
37528;DHT22;23372;52.050;4.810;2023-03-18T08:29:01;20.80;99.90
37528;DHT22;23372;52.050;4.810;2023-03-18T08:31:26;20.60;99.90
37528;DHT22;23372;52.050;4.810;2023-03-18T08:33:52;19.80;99.90
37528;DHT22;23372;52.050;4.810;2023-03-18T08:36:21;18.90;99.90
37528;DHT22;23372;52.050;4.810;2023-03-18T08:38:47;19.40;99.90
37528;DHT22;23372;52.050;4.810;2023-03-18T08:41:13;18.90;99.90
37528;DHT22;23372;52.050;4.810;2023-03-18T08:43:39;20.00;99.90
37528;DHT22;23372;52.050;4.810;2023-03-18T08:46:05;19.60;99.90
37528;DHT22;23372;52.050;4.810;2023-03-18T08:48:31;18.80;99.90
37528;DHT22;23372;52.050;4.810;2023-03-18T08:50:57;18.70;99.90
37528;DHT22;23372;52.050;4.810;2023-03-18T08:53:23;18.70;99.90
37528;DHT22;23372;52.050;4.810;2023-03-18T08:55:49;18.80;99.90
37528;DHT22;23372;52.050;4.810;2023-03-18T08:58:14;18.00;99.90
37528;DHT22;23372;52.050;4.810;2023-03-18T09:00:40;17.40;99.90
37528;DHT22;23372;52.050;4.810;2023-03-18T09:03:07;16.30;99.90
37528;DHT22;23372;52.050;4.810;2023-03-18T09:05:33;16.40;99.90
37528;DHT22;23372;52.050;4.810;2023-03-18T09:07:59;17.60;99.90
37528;DHT22;23372;52.050;4.810;2023-03-18T09:10:25;17.80;99.90
37528;DHT22;23372;52.050;4.810;2023-03-18T09:12:51;17.30;99.90
37528;DHT22;23372;52.050;4.810;2023-03-18T09:15:17;17.50;99.90
37528;DHT22;23372;52.050;4.810;2023-03-18T09:17:45;17.60;99.90
37528;DHT22;23372;52.050;4.810;2023-03-18T09:20:13;17.30;99.90
37528;DHT22;23372;52.050;4.810;2023-03-18T09:22:40;17.40;99.90
37528;DHT22;23372;52.050;4.810;2023-03-18T09:25:07;17.00;99.90
37528;DHT22;23372;52.050;4.810;2023-03-18T09:27:33;16.10;99.90
37528;DHT22;23372;52.050;4.810;2023-03-18T09:29:59;15.50;99.90
37528;DHT22;23372;52.050;4.810;2023-03-18T09:32:24;15.50;99.90
37528;DHT22;23372;52.050;4.810;2023-03-18T09:34:51;15.80;99.90
37528;DHT22;23372;52.050;4.810;2023-03-18T09:37:17;15.80;99.90
37528;DHT22;23372;52.050;4.810;2023-03-18T09:39:44;15.60;99.90
37528;DHT22;23372;52.050;4.810;2023-03-18T09:44:56;16.40;99.90
37528;DHT22;23372;52.050;4.810;2023-03-18T09:47:39;16.20;99.90
37528;DHT22;23372;52.050;4.810;2023-03-18T09:55:41;15.40;99.90
37528;DHT22;23372;52.050;4.810;2023-03-18T09:58:24;15.80;99.90
37528;DHT22;23372;52.050;4.810;2023-03-18T10:00:59;15.70;99.90
37528;DHT22;23372;52.050;4.810;2023-03-18T10:06:12;15.60;99.90
37528;DHT22;23372;52.050;4.810;2023-03-18T10:11:25;16.10;99.90
37528;DHT22;23372;52.050;4.810;2023-03-18T10:14:23;16.10;99.90
37528;DHT22;23372;52.050;4.810;2023-03-18T10:16:56;16.00;99.90
37528;DHT22;23372;52.050;4.810;2023-03-18T10:19:24;15.80;99.90
37528;DHT22;23372;52.050;4.810;2023-03-18T10:24:36;15.30;99.90
37528;DHT22;23372;52.050;4.810;2023-03-18T10:27:09;15.30;99.90
37528;DHT22;23372;52.050;4.810;2023-03-18T10:29:53;15.10;99.90
37528;DHT22;23372;52.050;4.810;2023-03-18T10:32:30;15.30;99.90
37528;DHT22;23372;52.050;4.810;2023-03-18T10:40:19;15.10;99.90
37528;DHT22;23372;52.050;4.810;2023-03-18T10:42:47;14.90;99.90
37528;DHT22;23372;52.050;4.810;2023-03-18T10:45:20;14.70;99.90
37528;DHT22;23372;52.050;4.810;2023-03-18T10:48:06;14.90;99.90
37528;DHT22;23372;52.050;4.810;2023-03-18T10:51:02;15.10;99.90
37528;DHT22;23372;52.050;4.810;2023-03-18T10:56:20;15.00;99.90
37528;DHT22;23372;52.050;4.810;2023-03-18T10:58:46;14.90;99.90
37528;DHT22;23372;52.050;4.810;2023-03-18T11:01:15;14.80;99.90
37528;DHT22;23372;52.050;4.810;2023-03-18T11:04:02;14.70;99.90
37528;DHT22;23372;52.050;4.810;2023-03-18T11:06:42;14.50;99.90
37528;DHT22;23372;52.050;4.810;2023-03-18T11:09:19;14.70;99.90
37528;DHT22;23372;52.050;4.810;2023-03-18T11:11:46;14.70;99.90
37528;DHT22;23372;52.050;4.810;2023-03-18T11:14:17;14.50;99.90
37528;DHT22;23372;52.050;4.810;2023-03-18T11:17:01;14.50;99.90
37528;DHT22;23372;52.050;4.810;2023-03-18T11:19:40;14.40;99.90
37528;DHT22;23372;52.050;4.810;2023-03-18T11:22:18;14.30;99.90
37528;DHT22;23372;52.050;4.810;2023-03-18T11:24:45;14.40;99.90
37528;DHT22;23372;52.050;4.810;2023-03-18T11:27:27;14.00;99.90
37528;DHT22;23372;52.050;4.810;2023-03-18T11:29:58;13.90;99.90
37528;DHT22;23372;52.050;4.810;2023-03-18T11:32:29;13.80;99.90
37528;DHT22;23372;52.050;4.810;2023-03-18T11:35:06;13.90;99.90
37528;DHT22;23372;52.050;4.810;2023-03-18T11:37:39;14.00;99.90
37528;DHT22;23372;52.050;4.810;2023-03-18T11:40:16;14.00;99.90
37528;DHT22;23372;52.050;4.810;2023-03-18T11:42:45;14.30;99.90
37528;DHT22;23372;52.050;4.810;2023-03-18T11:47:53;14.20;99.90
37528;DHT22;23372;52.050;4.810;2023-03-18T11:50:24;14.50;99.90
37528;DHT22;23372;52.050;4.810;2023-03-18T11:53:25;14.50;99.90
37528;DHT22;23372;52.050;4.810;2023-03-18T11:56:03;14.20;99.90
37528;DHT22;23372;52.050;4.810;2023-03-18T11:58:55;14.20;99.90
37528;DHT22;23372;52.050;4.810;2023-03-18T12:10:40;14.30;99.90
37528;DHT22;23372;52.050;4.810;2023-03-18T12:13:21;14.10;99.90
37528;DHT22;23372;52.050;4.810;2023-03-18T12:16:11;14.10;99.90
37528;DHT22;23372;52.050;4.810;2023-03-18T12:22:13;14.60;99.90
37528;DHT22;23372;52.050;4.810;2023-03-18T12:46:29;15.40;99.90
37528;DHT22;23372;52.050;4.810;2023-03-18T12:49:18;15.60;99.90
37528;DHT22;23372;52.050;4.810;2023-03-18T12:52:01;15.40;99.90
37528;DHT22;23372;52.050;4.810;2023-03-18T12:54:38;15.40;99.90
37528;DHT22;23372;52.050;4.810;2023-03-18T12:57:11;15.30;99.90
37528;DHT22;23372;52.050;4.810;2023-03-18T12:59:42;15.40;99.90
37528;DHT22;23372;52.050;4.810;2023-03-18T13:02:18;15.40;99.90
37528;DHT22;23372;52.050;4.810;2023-03-18T13:04:55;15.20;99.90
37528;DHT22;23372;52.050;4.810;2023-03-18T13:07:36;15.00;99.90
37528;DHT22;23372;52.050;4.810;2023-03-18T13:10:34;14.90;99.90
37528;DHT22;23372;52.050;4.810;2023-03-18T13:13:03;15.10;99.90
37528;DHT22;23372;52.050;4.810;2023-03-18T13:15:43;15.40;99.90
37528;DHT22;23372;52.050;4.810;2023-03-18T13:18:17;15.50;99.90
37528;DHT22;23372;52.050;4.810;2023-03-18T13:20:44;15.50;99.90
37528;DHT22;23372;52.050;4.810;2023-03-18T13:26:49;15.40;99.90
37528;DHT22;23372;52.050;4.810;2023-03-18T13:38:32;15.20;99.90
37528;DHT22;23372;52.050;4.810;2023-03-18T13:43:29;15.40;99.90
37528;DHT22;23372;52.050;4.810;2023-03-18T13:45:57;15.30;99.90
37528;DHT22;23372;52.050;4.810;2023-03-18T13:48:30;15.30;99.90
37528;DHT22;23372;52.050;4.810;2023-03-18T13:50:58;15.10;99.90
37528;DHT22;23372;52.050;4.810;2023-03-18T13:53:32;15.00;99.90
37528;DHT22;23372;52.050;4.810;2023-03-18T13:56:04;15.10;99.90
37528;DHT22;23372;52.050;4.810;2023-03-18T13:58:45;15.50;99.90
37528;DHT22;23372;52.050;4.810;2023-03-18T14:06:23;15.50;99.90
37528;DHT22;23372;52.050;4.810;2023-03-18T14:12:43;15.40;99.90
37528;DHT22;23372;52.050;4.810;2023-03-18T14:22:45;15.20;99.90
37528;DHT22;23372;52.050;4.810;2023-03-18T14:35:53;15.40;99.90
37528;DHT22;23372;52.050;4.810;2023-03-18T14:38:23;15.50;99.90
37528;DHT22;23372;52.050;4.810;2023-03-18T14:40:54;15.60;99.90
37528;DHT22;23372;52.050;4.810;2023-03-18T14:43:43;15.60;99.90
37528;DHT22;23372;52.050;4.810;2023-03-18T14:46:22;15.60;99.90
37528;DHT22;23372;52.050;4.810;2023-03-18T14:48:54;15.70;99.90
37528;DHT22;23372;52.050;4.810;2023-03-18T14:51:21;15.70;99.90
37528;DHT22;23372;52.050;4.810;2023-03-18T14:54:18;15.50;99.90
37528;DHT22;23372;52.050;4.810;2023-03-18T14:56:54;15.60;99.90
37528;DHT22;23372;52.050;4.810;2023-03-18T14:59:23;15.50;99.90
37528;DHT22;23372;52.050;4.810;2023-03-18T15:01:49;15.60;99.90
37528;DHT22;23372;52.050;4.810;2023-03-18T15:04:23;15.60;99.90
37528;DHT22;23372;52.050;4.810;2023-03-18T15:06:54;15.60;99.90
37528;DHT22;23372;52.050;4.810;2023-03-18T15:09:24;15.50;99.90
37528;DHT22;23372;52.050;4.810;2023-03-18T15:11:51;15.40;99.90
37528;DHT22;23372;52.050;4.810;2023-03-18T15:14:31;15.30;99.90
37528;DHT22;23372;52.050;4.810;2023-03-18T15:17:01;15.30;99.90
37528;DHT22;23372;52.050;4.810;2023-03-18T15:19:28;15.50;99.90
37528;DHT22;23372;52.050;4.810;2023-03-18T15:21:57;15.60;99.90
37528;DHT22;23372;52.050;4.810;2023-03-18T15:24:24;15.50;99.90
37528;DHT22;23372;52.050;4.810;2023-03-18T15:27:00;15.50;99.90
37528;DHT22;23372;52.050;4.810;2023-03-18T15:29:30;15.50;99.90
37528;DHT22;23372;52.050;4.810;2023-03-18T15:32:22;15.30;99.90
37528;DHT22;23372;52.050;4.810;2023-03-18T15:35:25;15.40;99.90
37528;DHT22;23372;52.050;4.810;2023-03-18T15:38:02;15.40;99.90
37528;DHT22;23372;52.050;4.810;2023-03-18T15:40:30;15.40;99.90
37528;DHT22;23372;52.050;4.810;2023-03-18T15:43:18;15.50;99.90
37528;DHT22;23372;52.050;4.810;2023-03-18T15:45:50;15.30;99.90
37528;DHT22;23372;52.050;4.810;2023-03-18T15:50:56;15.50;99.90
37528;DHT22;23372;52.050;4.810;2023-03-18T15:53:28;15.50;99.90
37528;DHT22;23372;52.050;4.810;2023-03-18T15:55:58;15.70;99.90
37528;DHT22;23372;52.050;4.810;2023-03-18T15:58:36;15.50;99.90
37528;DHT22;23372;52.050;4.810;2023-03-18T16:01:03;15.40;99.90
37528;DHT22;23372;52.050;4.810;2023-03-18T16:03:33;15.20;99.90
37528;DHT22;23372;52.050;4.810;2023-03-18T16:06:00;15.20;99.90
37528;DHT22;23372;52.050;4.810;2023-03-18T16:08:26;15.00;99.90
37528;DHT22;23372;52.050;4.810;2023-03-18T16:10:54;14.90;99.90
37528;DHT22;23372;52.050;4.810;2023-03-18T16:13:23;14.80;99.90
37528;DHT22;23372;52.050;4.810;2023-03-18T16:15:51;14.80;99.90
37528;DHT22;23372;52.050;4.810;2023-03-18T16:18:18;15.00;99.90
37528;DHT22;23372;52.050;4.810;2023-03-18T16:20:44;15.10;99.90
37528;DHT22;23372;52.050;4.810;2023-03-18T16:23:12;15.30;99.90
37528;DHT22;23372;52.050;4.810;2023-03-18T16:25:41;15.30;99.90
37528;DHT22;23372;52.050;4.810;2023-03-18T16:28:15;15.20;99.90
37528;DHT22;23372;52.050;4.810;2023-03-18T16:30:42;15.10;99.90
37528;DHT22;23372;52.050;4.810;2023-03-18T16:33:14;14.80;99.90
37528;DHT22;23372;52.050;4.810;2023-03-18T16:35:42;14.60;99.90
37528;DHT22;23372;52.050;4.810;2023-03-18T16:38:16;14.40;99.90
37528;DHT22;23372;52.050;4.810;2023-03-18T16:40:42;14.20;99.90
37528;DHT22;23372;52.050;4.810;2023-03-18T16:43:19;14.20;99.90
37528;DHT22;23372;52.050;4.810;2023-03-18T16:45:47;14.10;99.90
37528;DHT22;23372;52.050;4.810;2023-03-18T16:48:15;14.00;99.90
37528;DHT22;23372;52.050;4.810;2023-03-18T16:50:43;13.90;99.90
37528;DHT22;23372;52.050;4.810;2023-03-18T16:53:18;13.90;99.90
37528;DHT22;23372;52.050;4.810;2023-03-18T16:55:46;13.80;99.90
37528;DHT22;23372;52.050;4.810;2023-03-18T16:58:15;13.80;99.90
37528;DHT22;23372;52.050;4.810;2023-03-18T17:00:43;13.80;99.90
37528;DHT22;23372;52.050;4.810;2023-03-18T17:03:12;13.80;99.90
37528;DHT22;23372;52.050;4.810;2023-03-18T17:05:38;13.80;99.90
37528;DHT22;23372;52.050;4.810;2023-03-18T17:08:04;13.80;99.90
37528;DHT22;23372;52.050;4.810;2023-03-18T17:10:29;13.80;99.90
37528;DHT22;23372;52.050;4.810;2023-03-18T17:15:28;13.90;99.90
37528;DHT22;23372;52.050;4.810;2023-03-18T17:17:54;13.80;99.90
37528;DHT22;23372;52.050;4.810;2023-03-18T17:20:23;13.80;99.90
37528;DHT22;23372;52.050;4.810;2023-03-18T17:22:49;13.80;99.90
37528;DHT22;23372;52.050;4.810;2023-03-18T17:25:15;13.80;99.90
37528;DHT22;23372;52.050;4.810;2023-03-18T17:27:50;13.80;99.90
37528;DHT22;23372;52.050;4.810;2023-03-18T17:30:21;13.70;99.90
37528;DHT22;23372;52.050;4.810;2023-03-18T17:32:47;13.70;99.90
37528;DHT22;23372;52.050;4.810;2023-03-18T17:35:15;13.70;99.90
37528;DHT22;23372;52.050;4.810;2023-03-18T17:37:42;13.70;99.90
37528;DHT22;23372;52.050;4.810;2023-03-18T17:40:10;13.60;99.90
37528;DHT22;23372;52.050;4.810;2023-03-18T17:42:35;13.60;99.90
37528;DHT22;23372;52.050;4.810;2023-03-18T17:47:33;13.60;99.90